Time;durP1;ratioP1;P1;durP2;ratioP2;P2;SDS_P1;SDS_P2;PMS_P1;PMS_P2;Temp;Humidity;BMP_temperature;BMP_pressure;BME280_temperature;BME280_humidity;BME280_pressure;Samples;Min_cycle;Max_cycle;Signal;HPM_P1;HPM_P2
2022/08/10 00:00:42;;;;;;;3.00;2.53;;;18.80;99.90;;;;;;4996838;28;20071;-79
2022/08/10 00:03:08;;;;;;;4.93;2.47;;;18.80;99.90;;;;;;5014067;28;20018;-79
2022/08/10 00:05:34;;;;;;;3.47;2.17;;;18.70;99.90;;;;;;5012995;28;20025;-79
2022/08/10 00:08:01;;;;;;;3.95;2.50;;;18.70;99.90;;;;;;5030550;28;20044;-79
2022/08/10 00:10:26;;;;;;;4.88;2.58;;;18.60;99.90;;;;;;5019488;28;20101;-79
2022/08/10 00:12:52;;;;;;;4.78;2.55;;;18.60;99.90;;;;;;5041324;28;20034;-79
2022/08/10 00:15:21;;;;;;;3.83;2.00;;;18.60;99.90;;;;;;5012343;28;20081;-79
2022/08/10 00:17:47;;;;;;;3.55;2.10;;;18.60;99.90;;;;;;5017992;28;20040;-79
2022/08/10 00:20:13;;;;;;;3.80;2.38;;;18.60;99.90;;;;;;5021535;28;20038;-78
2022/08/10 00:22:40;;;;;;;6.75;2.63;;;18.60;99.90;;;;;;5019391;28;20516;-78
2022/08/10 00:25:06;;;;;;;4.03;2.60;;;18.50;99.90;;;;;;5033743;28;20034;-78
2022/08/10 00:27:32;;;;;;;3.05;2.10;;;18.60;99.90;;;;;;4999343;28;20065;-78
2022/08/10 00:29:58;;;;;;;4.25;2.40;;;18.50;99.90;;;;;;5004125;28;20048;-79
2022/08/10 00:32:24;;;;;;;3.47;2.30;;;18.50;99.90;;;;;;5039875;28;20525;-78
2022/08/10 00:34:50;;;;;;;5.03;2.20;;;18.50;99.90;;;;;;5016207;28;20073;-79
2022/08/10 00:37:17;;;;;;;4.85;2.40;;;18.50;99.90;;;;;;5019712;28;20030;-78
2022/08/10 00:39:44;;;;;;;3.33;2.08;;;18.40;99.90;;;;;;5012076;28;20021;-79
2022/08/10 00:42:11;;;;;;;2.72;2.15;;;18.40;99.90;;;;;;5031186;28;20018;-79
2022/08/10 00:44:48;;;;;;;4.55;3.28;;;18.40;99.90;;;;;;5013110;28;20025;-78
2022/08/10 00:47:15;;;;;;;8.10;2.88;;;18.40;99.90;;;;;;5011295;28;20052;-79
2022/08/10 00:49:41;;;;;;;5.88;2.80;;;18.30;99.90;;;;;;5011402;28;20076;-79
2022/08/10 00:52:07;;;;;;;4.13;2.35;;;18.30;99.90;;;;;;4995510;28;20030;-81
2022/08/10 00:54:35;;;;;;;3.30;2.28;;;18.30;99.90;;;;;;5018416;28;20029;-79
2022/08/10 00:57:04;;;;;;;5.38;2.35;;;18.30;99.90;;;;;;5015380;28;20048;-79
2022/08/10 00:59:31;;;;;;;6.60;2.22;;;18.30;99.90;;;;;;4994667;28;20129;-79
2022/08/10 01:01:58;;;;;;;4.13;2.20;;;18.20;99.90;;;;;;5012047;28;20048;-79
2022/08/10 01:04:24;;;;;;;3.28;2.20;;;18.20;99.90;;;;;;5014564;28;20088;-79
2022/08/10 01:07:08;;;;;;;3.50;2.35;;;18.20;99.90;;;;;;5022788;28;20448;-78
2022/08/10 01:09:39;;;;;;;3.25;2.10;;;18.20;99.90;;;;;;5016586;28;20048;-79
2022/08/10 01:12:11;;;;;;;;;;;18.10;99.90;;;;;;5018432;28;20065;-78
2022/08/10 01:15:04;;;;;;;3.63;1.90;;;18.10;99.90;;;;;;4998642;28;19909;-78
2022/08/10 01:17:38;;;;;;;3.55;1.90;;;18.10;99.90;;;;;;5007137;28;20042;-79
2022/08/10 01:20:25;;;;;;;5.60;1.83;;;18.10;99.90;;;;;;5000441;28;20057;-79
2022/08/10 01:23:03;;;;;;;4.70;2.20;;;18.10;99.90;;;;;;4999159;28;20033;-79
2022/08/10 01:25:35;;;;;;;4.75;2.30;;;18.10;99.90;;;;;;5013811;28;20033;-79
2022/08/10 01:28:22;;;;;;;2.60;1.73;;;18.10;99.90;;;;;;5014648;28;20497;-77
2022/08/10 01:30:53;;;;;;;3.05;2.30;;;18.00;99.90;;;;;;5018426;28;20032;-79
2022/08/10 01:33:26;;;;;;;3.25;1.92;;;18.00;99.90;;;;;;5029624;28;20021;-79
2022/08/10 01:36:15;;;;;;;2.58;1.70;;;18.00;99.90;;;;;;5027428;28;20033;-79
2022/08/10 01:38:45;;;;;;;3.05;2.03;;;18.00;99.90;;;;;;5049876;28;20034;-79
2022/08/10 01:41:25;;;;;;;3.22;2.05;;;18.00;99.90;;;;;;5044237;28;20046;-79
2022/08/10 01:44:07;;;;;;;3.90;2.25;;;18.00;99.90;;;;;;5043568;28;20161;-78
2022/08/10 01:46:35;;;;;;;4.15;1.90;;;17.90;99.90;;;;;;5026483;28;20030;-79
2022/08/10 01:49:05;;;;;;;3.33;2.33;;;17.90;99.90;;;;;;5007551;28;20017;-80
2022/08/10 01:51:43;;;;;;;3.20;1.77;;;17.90;99.90;;;;;;5003758;28;20026;-80
2022/08/10 01:54:11;;;;;;;4.05;1.88;;;17.90;99.90;;;;;;4996965;28;20029;-80
2022/08/10 01:56:43;;;;;;;4.05;2.10;;;17.90;99.90;;;;;;5030271;28;20032;-81
2022/08/10 01:59:22;;;;;;;5.55;2.33;;;17.80;99.90;;;;;;5011878;28;20041;-80
2022/08/10 02:01:52;;;;;;;7.25;2.00;;;17.80;99.90;;;;;;5010804;28;20067;-81
2022/08/10 02:04:20;;;;;;;4.20;2.15;;;17.80;99.90;;;;;;4997479;28;20071;-80
2022/08/10 02:06:52;;;;;;;4.40;2.40;;;17.80;99.90;;;;;;5026954;28;20013;-80
2022/08/10 02:09:25;;;;;;;2.63;2.13;;;17.80;99.90;;;;;;5010865;28;20033;-79
2022/08/10 02:11:52;;;;;;;3.35;2.22;;;17.80;99.90;;;;;;5002328;28;20025;-79
2022/08/10 02:14:20;;;;;;;4.07;2.20;;;17.70;99.90;;;;;;5011903;28;20053;-79
2022/08/10 02:16:49;;;;;;;2.95;1.83;;;17.70;99.90;;;;;;5018527;28;20057;-79
2022/08/10 02:19:20;;;;;;;5.22;2.00;;;17.70;99.90;;;;;;5010575;28;20507;-79
2022/08/10 02:21:48;;;;;;;3.88;1.85;;;17.70;99.90;;;;;;5011785;28;20371;-79
2022/08/10 02:24:15;;;;;;;3.78;2.40;;;17.70;99.90;;;;;;5011486;28;20124;-80
2022/08/10 02:26:43;;;;;;;3.20;2.15;;;17.70;99.90;;;;;;5028613;28;20026;-79
2022/08/10 02:29:15;;;;;;;3.13;2.13;;;17.70;99.90;;;;;;5017963;28;20369;-79
2022/08/10 02:31:42;;;;;;;5.63;2.10;;;17.60;99.90;;;;;;5018449;28;20026;-81
2022/08/10 02:34:11;;;;;;;3.00;2.05;;;17.60;99.90;;;;;;5033907;28;20036;-80
2022/08/10 02:36:43;;;;;;;4.07;2.20;;;17.60;99.90;;;;;;5029038;28;20034;-79
2022/08/10 02:39:10;;;;;;;3.83;2.55;;;17.50;99.90;;;;;;5031221;28;20030;-79
2022/08/10 02:41:49;;;;;;;4.47;2.42;;;17.60;99.90;;;;;;5010900;28;20038;-79
2022/08/10 02:45:00;;;;;;;3.33;2.25;;;17.50;99.90;;;;;;4995138;28;20133;-79
2022/08/10 02:47:32;;;;;;;2.78;2.15;;;17.50;99.90;;;;;;4984730;28;20033;-79
2022/08/10 02:50:15;;;;;;;4.18;2.25;;;17.50;99.90;;;;;;5029767;28;20026;-79
2022/08/10 02:52:46;;;;;;;3.55;2.22;;;17.50;99.90;;;;;;5009459;28;20121;-79
2022/08/10 02:55:43;;;;;;;2.33;1.95;;;17.50;99.90;;;;;;5030364;28;20030;-78
2022/08/10 02:58:28;;;;;;;5.95;2.10;;;17.50;99.90;;;;;;5011362;28;20071;-80
2022/08/10 03:00:56;;;;;;;4.20;2.13;;;17.40;99.90;;;;;;5034157;28;20022;-81
2022/08/10 03:03:25;;;;;;;4.03;2.45;;;17.40;99.90;;;;;;5010418;28;20104;-80
2022/08/10 03:05:59;;;;;;;4.55;2.25;;;17.40;99.90;;;;;;5030984;28;20089;-80
2022/08/10 03:08:29;;;;;;;3.13;1.98;;;17.40;99.90;;;;;;5028500;28;20026;-79
2022/08/10 03:10:57;;;;;;;3.03;2.20;;;17.40;99.90;;;;;;4996125;28;20041;-80
2022/08/10 03:13:23;;;;;;;3.35;2.45;;;17.40;99.90;;;;;;5011327;28;20271;-80
2022/08/10 03:15:50;;;;;;;3.53;2.10;;;17.40;99.90;;;;;;5016319;28;20036;-80
2022/08/10 03:18:17;;;;;;;3.97;2.13;;;17.30;99.90;;;;;;5009967;28;20060;-81
2022/08/10 03:20:43;;;;;;;3.25;2.33;;;17.30;99.90;;;;;;5001477;28;20025;-79
2022/08/10 03:23:16;;;;;;;3.35;2.28;;;17.20;99.90;;;;;;4995582;28;20028;-79
2022/08/10 03:25:45;;;;;;;3.38;2.28;;;17.30;99.90;;;;;;5029452;28;20025;-80
2022/08/10 03:28:12;;;;;;;5.93;2.60;;;17.20;99.90;;;;;;5011915;28;20034;-79
2022/08/10 03:30:38;;;;;;;4.22;2.33;;;17.20;99.90;;;;;;5029939;28;20022;-80
2022/08/10 03:33:06;;;;;;;4.32;2.35;;;17.20;99.90;;;;;;5011888;28;20034;-79
2022/08/10 03:35:33;;;;;;;2.95;2.13;;;17.20;99.90;;;;;;5014124;28;20249;-78
2022/08/10 03:37:59;;;;;;;4.20;2.33;;;17.20;99.90;;;;;;5015755;28;20088;-79
2022/08/10 03:40:27;;;;;;;4.25;2.60;;;17.20;99.90;;;;;;5042270;28;20013;-79
2022/08/10 03:42:55;;;;;;;3.22;2.30;;;17.20;99.90;;;;;;5023030;28;20029;-78
2022/08/10 03:45:21;;;;;;;4.03;2.30;;;17.20;99.90;;;;;;5005585;28;20006;-79
2022/08/10 03:47:49;;;;;;;5.10;2.88;;;17.20;99.90;;;;;;5006597;28;20034;-82
2022/08/10 03:50:16;;;;;;;7.20;2.17;;;17.20;99.90;;;;;;4995437;28;20114;-81
2022/08/10 03:52:43;;;;;;;3.72;2.22;;;17.10;99.90;;;;;;4995274;28;20022;-80
2022/08/10 03:55:10;;;;;;;5.38;2.72;;;17.10;99.90;;;;;;5011878;28;20026;-80
2022/08/10 03:57:37;;;;;;;3.45;2.58;;;17.10;99.90;;;;;;5014547;28;20168;-80
2022/08/10 04:00:04;;;;;;;4.30;2.50;;;17.10;99.90;;;;;;5011954;28;20030;-79
2022/08/10 04:02:31;;;;;;;3.88;2.70;;;17.10;99.90;;;;;;5014787;28;20022;-79
2022/08/10 04:04:57;;;;;;;6.15;2.70;;;17.10;99.90;;;;;;5037335;28;20025;-80
2022/08/10 04:07:23;;;;;;;3.13;2.40;;;17.10;99.90;;;;;;5013529;28;20438;-81
2022/08/10 04:09:50;;;;;;;3.78;2.78;;;17.10;99.90;;;;;;5011578;28;20029;-80
2022/08/10 04:12:16;;;;;;;2.70;2.28;;;17.10;99.90;;;;;;5011590;28;20093;-79
2022/08/10 04:14:42;;;;;;;3.50;2.85;;;17.10;99.90;;;;;;5030531;28;20077;-80
2022/08/10 04:17:07;;;;;;;3.92;2.50;;;17.00;99.90;;;;;;5012847;28;20049;-80
2022/08/10 04:19:46;;;;;;;4.80;3.00;;;17.00;99.90;;;;;;5012613;28;20072;-80
2022/08/10 04:22:22;;;;;;;7.07;2.72;;;17.00;99.90;;;;;;4994261;28;20083;-78
2022/08/10 04:24:53;;;;;;;3.90;2.70;;;17.00;99.90;;;;;;5012243;28;20416;-80
2022/08/10 04:27:20;;;;;;;3.13;2.08;;;17.00;99.90;;;;;;5008598;28;20045;-78
2022/08/10 04:29:47;;;;;;;4.13;2.40;;;17.00;99.90;;;;;;5011869;28;20025;-80
2022/08/10 04:32:17;;;;;;;3.80;2.58;;;17.00;99.90;;;;;;5032538;28;20026;-80
2022/08/10 04:34:44;;;;;;;4.40;2.50;;;17.00;99.90;;;;;;5012546;28;20089;-80
2022/08/10 04:37:12;;;;;;;4.43;2.55;;;17.00;99.90;;;;;;5011271;28;20120;-80
2022/08/10 04:39:38;;;;;;;3.92;2.35;;;17.00;99.90;;;;;;5013867;28;20599;-78
2022/08/10 04:42:04;;;;;;;5.80;2.65;;;17.00;99.90;;;;;;5021800;28;20112;-79
2022/08/10 04:44:31;;;;;;;4.00;2.78;;;17.00;99.90;;;;;;5013479;28;20032;-80
2022/08/10 04:46:57;;;;;;;5.53;2.50;;;17.00;99.90;;;;;;5011344;28;20192;-80
2022/08/10 04:49:23;;;;;;;3.80;2.72;;;17.10;99.90;;;;;;5014153;28;20072;-78
2022/08/10 04:51:48;;;;;;;6.47;2.70;;;17.10;99.90;;;;;;5015715;28;20056;-78
2022/08/10 04:54:14;;;;;;;4.47;2.20;;;17.10;99.90;;;;;;5001452;28;20540;-78
2022/08/10 04:56:40;;;;;;;4.55;2.42;;;17.10;99.90;;;;;;5033370;28;20057;-78
2022/08/10 04:59:07;;;;;;;5.15;2.80;;;17.10;99.90;;;;;;5033490;28;20018;-77
2022/08/10 05:01:34;;;;;;;4.30;2.47;;;17.20;99.90;;;;;;5014600;28;20489;-80
2022/08/10 05:04:01;;;;;;;4.28;2.78;;;17.20;99.90;;;;;;5015743;28;20032;-78
2022/08/10 05:06:26;;;;;;;5.75;2.55;;;17.40;99.90;;;;;;5015089;28;20022;-78
2022/08/10 05:08:52;;;;;;;6.50;3.10;;;17.70;99.90;;;;;;4998664;28;20146;-80
2022/08/10 05:11:18;;;;;;;7.63;2.65;;;17.80;99.90;;;;;;5014893;28;20033;-78
2022/08/10 05:13:43;;;;;;;4.82;2.65;;;18.00;99.90;;;;;;5015070;28;20033;-79
2022/08/10 05:16:09;;;;;;;6.07;2.53;;;17.90;99.90;;;;;;5013531;28;20478;-78
2022/08/10 05:18:35;;;;;;;7.88;2.78;;;17.70;99.90;;;;;;4999100;28;20025;-79
2022/08/10 05:21:01;;;;;;;4.82;2.55;;;17.70;99.90;;;;;;5014688;28;20033;-80
2022/08/10 05:23:26;;;;;;;3.42;2.50;;;17.70;99.90;;;;;;4996906;28;20112;-80
2022/08/10 05:25:52;;;;;;;3.42;2.70;;;17.60;99.90;;;;;;5015194;28;20536;-79
2022/08/10 05:28:18;;;;;;;3.90;2.70;;;17.60;99.90;;;;;;4997229;28;20069;-80
2022/08/10 05:30:43;;;;;;;3.25;2.50;;;17.60;99.90;;;;;;5015268;28;20030;-80
2022/08/10 05:33:09;;;;;;;4.00;2.28;;;17.70;99.90;;;;;;5013235;28;20053;-80
2022/08/10 05:35:37;;;;;;;4.18;2.70;;;17.70;99.90;;;;;;5021454;28;20521;-80
2022/08/10 05:38:04;;;;;;;4.78;2.58;;;17.70;99.90;;;;;;5000861;28;20056;-79
2022/08/10 05:40:30;;;;;;;3.83;2.78;;;17.70;99.90;;;;;;4996947;28;20025;-79
2022/08/10 05:42:56;;;;;;;4.30;2.65;;;17.80;99.90;;;;;;5012285;28;20026;-79
2022/08/10 05:45:26;;;;;;;4.45;2.90;;;17.80;99.90;;;;;;5014728;28;20366;-79
2022/08/10 05:47:53;;;;;;;4.10;2.45;;;17.80;99.90;;;;;;5015167;28;20026;-80
2022/08/10 05:50:25;;;;;;;5.00;2.50;;;17.90;99.90;;;;;;5019405;28;20036;-80
2022/08/10 05:52:51;;;;;;;3.88;2.58;;;17.90;99.90;;;;;;5014978;28;20025;-80
2022/08/10 05:55:18;;;;;;;4.85;2.25;;;18.00;99.90;;;;;;5013554;28;20047;-80
2022/08/10 05:57:44;;;;;;;3.90;2.55;;;18.00;99.90;;;;;;5021522;28;20033;-80
2022/08/10 06:00:17;;;;;;;3.28;2.00;;;18.10;99.90;;;;;;4996484;28;20026;-79
2022/08/10 06:02:47;;;;;;;4.00;2.17;;;18.10;99.90;;;;;;5016334;28;20149;-80
2022/08/10 06:05:18;;;;;;;4.32;2.40;;;18.20;99.90;;;;;;5015230;28;20022;-80
2022/08/10 06:08:00;;;;;;;3.77;2.33;;;18.20;99.90;;;;;;5013842;28;20013;-80
2022/08/10 06:10:28;;;;;;;4.45;1.98;;;18.20;99.90;;;;;;5013505;28;20283;-79
2022/08/10 06:15:41;;;;;;;2.83;1.83;;;18.30;99.90;;;;;;5040048;28;20294;-80
2022/08/10 06:18:08;;;;;;;2.75;2.05;;;18.30;99.90;;;;;;5029409;28;20025;-80
2022/08/10 06:20:34;;;;;;;2.95;1.88;;;18.40;99.90;;;;;;5004745;28;20548;-80
2022/08/10 06:23:02;;;;;;;2.67;1.60;;;18.40;99.90;;;;;;5035531;28;20025;-80
2022/08/10 06:25:29;;;;;;;3.17;1.83;;;18.40;99.90;;;;;;5028038;28;20029;-80
2022/08/10 06:27:57;;;;;;;4.15;2.30;;;18.50;99.90;;;;;;5043834;28;20085;-80
2022/08/10 06:30:25;;;;;;;2.95;1.95;;;18.60;99.90;;;;;;5047116;28;20037;-80
2022/08/10 06:32:55;;;;;;;5.05;1.90;;;18.60;99.90;;;;;;5025532;28;20025;-80
2022/08/10 06:35:24;;;;;;;2.33;1.80;;;18.70;99.90;;;;;;5027930;28;20089;-80
2022/08/10 06:37:50;;;;;;;2.60;1.77;;;18.70;99.90;;;;;;5008665;28;20041;-79
2022/08/10 06:40:16;;;;;;;2.88;2.15;;;18.70;99.90;;;;;;5049001;28;20038;-80
2022/08/10 06:42:47;;;;;;;2.55;1.92;;;18.80;99.90;;;;;;5013140;28;20025;-80
2022/08/10 06:45:17;;;;;;;3.58;2.30;;;18.80;99.90;;;;;;5010756;28;20569;-79
2022/08/10 06:47:43;;;;;;;4.78;1.85;;;18.90;99.90;;;;;;5027939;28;20036;-80
2022/08/10 06:50:19;;;;;;;2.78;1.80;;;18.90;99.90;;;;;;5019212;28;20412;-80
2022/08/10 06:52:47;;;;;;;3.63;2.10;;;19.00;99.90;;;;;;5009298;28;20092;-79
2022/08/10 06:55:13;;;;;;;4.25;2.00;;;19.00;99.90;;;;;;5009561;28;20117;-80
2022/08/10 06:57:41;;;;;;;4.68;2.00;;;19.10;99.90;;;;;;5026368;28;20030;-80
2022/08/10 07:00:08;;;;;;;3.58;2.10;;;19.20;99.90;;;;;;4993325;28;20026;-80
2022/08/10 07:02:45;;;;;;;3.88;1.85;;;19.20;99.90;;;;;;5014520;28;20044;-80
2022/08/10 07:05:18;;;;;;;4.85;2.03;;;19.20;99.90;;;;;;5028147;28;20067;-80
2022/08/10 07:07:45;;;;;;;3.40;1.90;;;19.30;99.90;;;;;;5030160;28;20027;-80
2022/08/10 07:10:15;;;;;;;3.70;1.90;;;19.30;99.90;;;;;;5019636;28;20034;-80
2022/08/10 07:12:42;;;;;;;4.63;2.05;;;19.40;99.90;;;;;;5013257;28;20033;-80
2022/08/10 07:15:11;;;;;;;3.63;2.20;;;19.40;99.90;;;;;;5016031;28;20021;-78
2022/08/10 07:17:40;;;;;;;4.43;2.10;;;19.40;99.90;;;;;;5023135;28;20026;-78
2022/08/10 07:20:08;;;;;;;2.65;1.85;;;19.50;99.90;;;;;;5039118;28;20410;-79
2022/08/10 07:22:36;;;;;;;2.70;1.85;;;19.60;99.90;;;;;;5016401;28;20044;-79
2022/08/10 07:25:04;;;;;;;2.60;1.60;;;19.60;99.90;;;;;;4998762;28;20033;-80
2022/08/10 07:27:31;;;;;;;3.30;1.70;;;19.70;99.90;;;;;;5016204;28;20630;-80
2022/08/10 07:29:58;;;;;;;4.18;2.00;;;19.70;99.90;;;;;;5013044;28;20022;-79
2022/08/10 07:32:26;;;;;;;5.00;2.05;;;19.80;99.90;;;;;;5021848;28;20029;-80
2022/08/10 07:34:53;;;;;;;5.53;2.65;;;19.90;99.90;;;;;;4995402;28;20025;-80
2022/08/10 07:37:21;;;;;;;3.45;1.80;;;19.90;99.90;;;;;;5014922;28;20040;-80
2022/08/10 07:39:50;;;;;;;4.05;2.00;;;19.90;99.90;;;;;;4995344;28;20047;-78
2022/08/10 07:42:20;;;;;;;3.50;1.90;;;19.90;99.90;;;;;;5010128;28;20030;-80
2022/08/10 07:44:46;;;;;;;2.97;1.90;;;20.00;99.90;;;;;;5012622;28;20021;-80
2022/08/10 07:47:20;;;;;;;6.93;2.22;;;20.00;99.90;;;;;;5011817;28;20086;-81
2022/08/10 07:49:48;;;;;;;3.22;1.80;;;20.10;99.90;;;;;;5010578;28;20029;-80
2022/08/10 07:52:14;;;;;;;2.90;1.70;;;20.10;99.90;;;;;;4996117;28;20029;-80
2022/08/10 07:54:42;;;;;;;3.58;2.05;;;20.20;99.90;;;;;;5014772;28;20084;-78
2022/08/10 07:57:22;;;;;;;3.00;1.88;;;20.20;99.90;;;;;;5011713;28;20030;-78
2022/08/10 07:59:54;;;;;;;3.75;2.00;;;20.20;99.90;;;;;;5014985;28;20026;-79
2022/08/10 08:02:34;;;;;;;5.57;2.20;;;20.20;99.90;;;;;;5023292;28;20034;-79
2022/08/10 08:05:06;;;;;;;2.85;1.90;;;20.20;99.90;;;;;;4999166;28;20280;-79
2022/08/10 08:07:34;;;;;;;2.58;1.42;;;20.30;99.90;;;;;;5031578;28;20033;-79
2022/08/10 08:10:01;;;;;;;6.10;2.00;;;20.30;99.90;;;;;;4995970;28;20047;-79
2022/08/10 08:12:28;;;;;;;3.33;1.63;;;20.40;99.90;;;;;;5033996;28;20501;-79
2022/08/10 08:14:55;;;;;;;3.60;1.83;;;20.40;99.90;;;;;;5005098;28;20055;-79
2022/08/10 08:17:25;;;;;;;3.22;1.65;;;20.50;99.90;;;;;;5042957;28;20033;-79
2022/08/10 08:19:53;;;;;;;3.58;1.63;;;20.50;99.90;;;;;;5022230;28;20034;-80
2022/08/10 08:22:20;;;;;;;4.40;1.65;;;20.60;99.90;;;;;;5014080;28;20152;-79
2022/08/10 08:24:46;;;;;;;5.47;2.20;;;20.60;99.90;;;;;;5031333;28;20026;-78
2022/08/10 08:27:18;;;;;;;4.57;1.70;;;20.70;99.90;;;;;;5020837;28;20108;-78
2022/08/10 08:29:45;;;;;;;4.22;1.98;;;20.80;99.90;;;;;;5020781;28;20064;-80
2022/08/10 08:32:15;;;;;;;1.77;1.45;;;20.80;99.90;;;;;;5003126;28;20029;-80
2022/08/10 08:34:43;;;;;;;2.75;1.70;;;20.80;99.90;;;;;;4997700;28;20400;-80
2022/08/10 08:37:10;;;;;;;4.03;2.17;;;20.90;99.90;;;;;;5013908;28;20026;-80
2022/08/10 08:39:37;;;;;;;4.63;2.05;;;21.00;99.90;;;;;;5013988;28;20030;-82
2022/08/10 08:42:33;;;;;;;1.63;1.50;;;21.10;99.90;;;;;;4997161;28;20021;-80
2022/08/10 08:45:05;;;;;;;4.43;2.00;;;21.10;99.90;;;;;;5000466;28;20026;-79
2022/08/10 08:47:56;;;;;;;5.45;2.10;;;21.10;99.90;;;;;;5030330;28;20045;-80
2022/08/10 08:50:55;;;;;;;5.18;1.60;;;21.20;99.90;;;;;;4993334;28;20022;-80
2022/08/10 08:53:58;;;;;;;3.20;1.70;;;21.20;99.90;;;;;;5013708;28;20033;-79
2022/08/10 08:56:30;;;;;;;2.28;1.52;;;21.20;99.90;;;;;;4993871;28;20029;-79
2022/08/10 08:59:21;;;;;;;2.85;1.70;;;21.30;99.90;;;;;;5010075;28;20084;-81
2022/08/10 09:02:06;;;;;;;2.65;1.48;;;21.30;99.90;;;;;;5012097;28;20053;-80
2022/08/10 09:04:47;;;;;;;2.58;1.50;;;21.40;99.90;;;;;;4997418;28;20098;-80
2022/08/10 09:07:45;;;;;;;3.30;1.40;;;21.50;99.90;;;;;;5036802;28;20030;-79
2022/08/10 09:10:26;;;;;;;4.28;1.67;;;21.50;99.90;;;;;;5013668;28;20037;-79
2022/08/10 09:13:28;;;;;;;4.35;1.73;;;21.50;99.90;;;;;;5014362;28;20026;-80
2022/08/10 09:16:18;;;;;;;2.22;1.30;;;21.50;99.90;;;;;;5017767;28;20061;-80
2022/08/10 09:18:56;;;;;;;3.40;1.55;;;21.50;99.90;;;;;;5028286;28;20506;-80
2022/08/10 09:21:59;;;;;;;3.38;1.35;;;21.40;99.90;;;;;;5031954;28;20056;-80
2022/08/10 09:24:40;;;;;;;4.00;1.35;;;21.50;99.90;;;;;;5014745;28;20029;-80
2022/08/10 09:27:13;;;;;;;3.65;1.52;;;21.50;99.90;;;;;;5029961;28;20038;-78
2022/08/10 09:29:53;;;;;;;2.35;1.50;;;21.60;99.90;;;;;;5037653;23;20100;-76
2022/08/10 09:32:56;;;;;;;1.30;1.10;;;21.70;99.90;;;;;;5043600;28;20496;-78
2022/08/10 09:35:30;;;;;;;1.90;0.98;;;21.80;99.80;;;;;;4984744;28;20068;-75
2022/08/10 09:38:34;;;;;;;0.90;0.82;;;21.80;99.10;;;;;;5044639;28;20028;-75
2022/08/10 09:41:21;;;;;;;3.25;1.10;;;22.00;98.20;;;;;;5011704;28;20029;-76
2022/08/10 09:44:05;;;;;;;1.40;1.17;;;22.10;98.20;;;;;;5043276;28;20120;-76
2022/08/10 09:46:41;;;;;;;3.80;1.40;;;22.10;98.10;;;;;;5044537;28;20017;-73
2022/08/10 09:49:12;;;;;;;1.60;1.08;;;22.10;98.00;;;;;;5013110;28;20025;-73
2022/08/10 09:51:57;;;;;;;2.42;1.00;;;22.10;98.00;;;;;;5024450;28;20033;-75
2022/08/10 09:54:56;;;;;;;3.17;1.15;;;22.20;97.80;;;;;;5046818;28;20447;-74
2022/08/10 09:57:51;;;;;;;1.73;0.80;;;22.20;97.60;;;;;;5014232;28;20029;-73
2022/08/10 10:00:24;;;;;;;1.48;0.80;;;22.20;97.80;;;;;;5025082;28;20041;-74
2022/08/10 10:03:09;;;;;;;2.10;1.13;;;22.20;97.30;;;;;;5042037;28;20111;-74
2022/08/10 10:06:13;;;;;;;2.63;0.90;;;22.30;97.70;;;;;;5031916;28;20036;-75
2022/08/10 10:08:51;;;;;;;1.90;0.98;;;22.30;97.70;;;;;;4991594;28;20029;-76
2022/08/10 10:11:35;;;;;;;1.63;1.02;;;22.40;97.40;;;;;;5041102;28;20378;-73
2022/08/10 10:14:17;;;;;;;2.25;1.20;;;22.40;97.70;;;;;;5026517;28;20034;-73
2022/08/10 10:17:11;;;;;;;1.52;1.08;;;22.50;97.80;;;;;;5023614;28;20496;-73
2022/08/10 10:20:03;;;;;;;3.58;0.90;;;22.60;97.90;;;;;;5025986;28;20034;-73
2022/08/10 10:23:00;;;;;;;1.60;1.00;;;22.70;97.30;;;;;;5026147;28;20051;-73
2022/08/10 10:25:36;;;;;;;3.60;1.15;;;22.70;96.80;;;;;;5006441;28;20056;-73
2022/08/10 10:28:02;;;;;;;1.02;0.90;;;22.80;96.60;;;;;;5041616;28;20033;-73
2022/08/10 10:30:37;;;;;;;1.17;0.90;;;22.80;96.40;;;;;;5024657;28;20025;-73
2022/08/10 10:33:14;;;;;;;1.65;0.80;;;22.90;96.40;;;;;;5043152;28;20025;-73
2022/08/10 10:35:54;;;;;;;1.63;0.85;;;22.90;95.50;;;;;;5025977;28;20065;-73
2022/08/10 10:38:38;;;;;;;4.80;1.17;;;22.90;94.60;;;;;;5043414;28;20029;-75
2022/08/10 10:41:29;;;;;;;2.42;1.00;;;22.90;94.90;;;;;;5043600;28;20039;-75
2022/08/10 10:44:49;;;;;;;2.63;0.80;;;22.80;94.10;;;;;;5043093;28;20159;-74
2022/08/10 10:47:34;;;;;;;1.83;1.00;;;22.80;94.70;;;;;;4961481;28;20060;-73
2022/08/10 10:50:13;;;;;;;0.95;0.80;;;22.80;95.00;;;;;;4961288;28;20026;-75
2022/08/10 10:53:01;;;;;;;2.55;1.00;;;22.90;95.30;;;;;;5012330;28;20451;-75
2022/08/10 10:55:47;;;;;;;1.08;0.90;;;22.90;94.60;;;;;;5049328;28;20036;-75
2022/08/10 10:58:22;;;;;;;2.50;0.90;;;23.00;94.70;;;;;;5030825;28;20036;-75
2022/08/10 11:00:53;;;;;;;1.58;1.00;;;22.90;94.00;;;;;;5034821;28;20504;-77
2022/08/10 11:03:46;;;;;;;1.90;0.90;;;22.90;93.80;;;;;;5032721;28;20426;-77
2022/08/10 11:06:50;;;;;;;1.55;1.00;;;23.00;93.80;;;;;;5032087;28;20032;-75
2022/08/10 11:09:41;;;;;;;1.13;0.80;;;23.10;94.60;;;;;;5038279;28;20139;-76
2022/08/10 11:12:20;;;;;;;3.50;1.05;;;23.30;94.40;;;;;;5050021;28;20500;-75
2022/08/10 11:15:08;;;;;;;2.40;1.10;;;23.60;93.60;;;;;;5034442;28;20033;-77
2022/08/10 11:17:43;;;;;;;3.75;1.00;;;23.90;92.40;;;;;;5048561;28;20450;-74
2022/08/10 11:20:17;;;;;;;1.35;0.73;;;24.90;92.30;;;;;;5013215;28;20036;-76
2022/08/10 11:23:01;;;;;;;2.15;0.90;;;26.10;88.70;;;;;;5050853;28;20389;-75
2022/08/10 11:25:34;;;;;;;0.82;0.75;;;28.00;82.10;;;;;;5050482;28;20493;-76
2022/08/10 11:28:28;;;;;;;1.83;0.80;;;29.80;74.10;;;;;;5048083;28;20056;-72
2022/08/10 11:31:00;;;;;;;1.13;0.77;;;31.30;65.30;;;;;;5032754;28;20033;-76
2022/08/10 11:34:13;;;;;;;1.10;0.98;;;32.80;59.20;;;;;;5014196;28;20033;-74
2022/08/10 11:37:09;;;;;;;1.20;0.80;;;34.70;53.40;;;;;;5030383;28;20032;-75
2022/08/10 11:39:47;;;;;;;1.73;0.98;;;35.80;50.00;;;;;;5030076;28;20102;-75
2022/08/10 11:42:30;;;;;;;1.35;0.95;;;36.80;46.30;;;;;;5047494;28;20029;-76
2022/08/10 11:45:01;;;;;;;0.98;0.82;;;37.50;45.60;;;;;;5028969;28;20033;-75
2022/08/10 11:47:54;;;;;;;0.80;0.80;;;37.50;44.20;;;;;;5028797;28;20028;-75
2022/08/10 11:50:26;;;;;;;1.10;0.90;;;37.40;43.10;;;;;;5034135;28;20037;-76
2022/08/10 11:52:55;;;;;;;1.05;0.88;;;36.20;43.50;;;;;;5018880;28;20451;-76
2022/08/10 11:55:30;;;;;;;1.20;1.10;;;34.60;44.20;;;;;;5011315;28;20071;-75
2022/08/10 11:58:00;;;;;;;1.55;1.02;;;34.50;45.80;;;;;;5046952;28;20033;-75
2022/08/10 12:00:31;;;;;;;3.08;1.10;;;33.50;46.30;;;;;;5026888;28;20034;-76
2022/08/10 12:03:04;;;;;;;1.80;1.05;;;32.50;46.90;;;;;;5022088;28;20223;-75
2022/08/10 12:05:34;;;;;;;1.10;1.10;;;32.40;47.50;;;;;;5039957;28;20040;-81
2022/08/10 12:08:00;;;;;;;2.40;1.00;;;31.70;47.40;;;;;;5023572;28;20369;-77
2022/08/10 12:10:28;;;;;;;2.38;1.02;;;31.30;47.70;;;;;;5025557;28;20034;-75
2022/08/10 12:13:22;;;;;;;129.60;115.72;;;31.80;48.80;;;;;;5014999;28;20488;-75
2022/08/10 12:15:53;;;;;;;12.13;11.00;;;32.20;47.50;;;;;;5031647;28;20115;-77
2022/08/10 12:18:48;;;;;;;3.88;3.45;;;31.90;45.20;;;;;;5043186;28;20021;-75
2022/08/10 12:21:26;;;;;;;3.20;2.25;;;32.10;46.40;;;;;;4977325;28;20405;-75
2022/08/10 12:23:59;;;;;;;2.53;1.20;;;32.90;45.80;;;;;;5026801;28;20111;-76
2022/08/10 12:26:31;;;;;;;1.70;1.10;;;33.40;46.60;;;;;;5047206;28;20040;-74
2022/08/10 12:29:18;;;;;;;0.82;0.77;;;33.30;46.10;;;;;;5011082;28;20044;-74
2022/08/10 12:31:50;;;;;;;1.92;0.90;;;33.60;46.00;;;;;;5045363;28;20032;-74
2022/08/10 12:34:30;;;;;;;1.95;0.80;;;33.40;45.60;;;;;;5014221;28;20476;-73
2022/08/10 12:37:43;;;;;;;1.45;1.00;;;33.20;46.50;;;;;;5028573;28;20624;-73
2022/08/10 12:40:30;;;;;;;2.33;0.95;;;33.10;45.80;;;;;;4971937;28;20033;-74
2022/08/10 12:43:10;;;;;;;1.77;1.00;;;33.60;45.70;;;;;;5008369;28;20563;-73
2022/08/10 12:46:12;;;;;;;2.92;0.90;;;34.20;45.30;;;;;;5027943;28;20163;-74
2022/08/10 12:48:47;;;;;;;1.30;0.68;;;34.70;44.20;;;;;;5032768;28;20472;-74
2022/08/10 12:51:22;;;;;;;2.85;1.10;;;34.60;43.80;;;;;;5027636;28;20429;-74
2022/08/10 12:54:10;;;;;;;3.42;0.85;;;35.10;44.10;;;;;;5026233;28;20408;-74
2022/08/10 12:56:41;;;;;;;1.33;1.00;;;34.60;45.60;;;;;;5010819;28;20039;-76
2022/08/10 12:59:11;;;;;;;1.20;0.90;;;34.90;44.50;;;;;;5042588;28;20497;-75
2022/08/10 13:01:38;;;;;;;1.80;0.90;;;35.30;44.30;;;;;;5044803;28;20393;-74
2022/08/10 13:04:08;;;;;;;1.45;1.10;;;35.10;43.60;;;;;;5029766;28;20033;-77
2022/08/10 13:06:40;;;;;;;1.50;1.05;;;35.00;43.50;;;;;;5043465;28;20025;-74
2022/08/10 13:09:12;;;;;;;2.25;1.20;;;35.30;43.20;;;;;;5046553;28;20088;-75
2022/08/10 13:11:40;;;;;;;1.95;1.00;;;35.50;43.80;;;;;;5046751;28;20119;-75
2022/08/10 13:14:12;;;;;;;1.25;1.10;;;35.80;42.30;;;;;;5045598;28;20029;-74
2022/08/10 13:16:41;;;;;;;1.90;1.08;;;35.60;43.80;;;;;;5011435;28;20025;-74
2022/08/10 13:19:07;;;;;;;2.22;1.20;;;36.10;42.70;;;;;;5028804;28;20038;-74
2022/08/10 13:21:35;;;;;;;1.02;0.80;;;36.20;43.00;;;;;;5035983;28;20032;-74
2022/08/10 13:24:11;;;;;;;1.80;1.30;;;36.40;41.20;;;;;;5033078;28;20651;-74